Time;durP1;ratioP1;P1;durP2;ratioP2;P2;SDS_P1;SDS_P2;PMS_P1;PMS_P2;Temp;Humidity;BMP_temperature;BMP_pressure;BME280_temperature;BME280_humidity;BME280_pressure;Samples;Min_cycle;Max_cycle;Signal;HPM_P1;HPM_P2
2021/03/20 00:00:53;;;;;;;15.85;8.68;;;;;;;4.08;84.35;102303.63;4985347;28;20097;-78
2021/03/20 00:03:19;;;;;;;14.52;8.45;;;;;;;4.07;84.42;102307.16;4985878;28;20030;-78
2021/03/20 00:05:46;;;;;;;13.00;8.73;;;;;;;4.01;84.79;102307.25;4984095;28;20610;-78
2021/03/20 00:08:13;;;;;;;16.40;9.18;;;;;;;3.98;84.93;102303.75;4985691;28;20031;-79
2021/03/20 00:10:40;;;;;;;15.75;8.77;;;;;;;3.94;85.27;102302.94;4952961;28;20057;-79
2021/03/20 00:13:06;;;;;;;14.43;8.60;;;;;;;3.91;85.64;102305.59;4970820;28;20125;-78
2021/03/20 00:15:33;;;;;;;14.93;9.45;;;;;;;3.89;85.78;102302.06;4986773;28;20578;-78
2021/03/20 00:17:58;;;;;;;15.07;9.13;;;;;;;3.88;85.97;102305.66;4987193;28;20042;-79
2021/03/20 00:20:28;;;;;;;14.38;9.05;;;;;;;3.86;86.35;102296.81;4973989;28;20029;-78
2021/03/20 00:22:54;;;;;;;16.95;9.98;;;;;;;3.84;86.35;102300.38;4985877;28;20038;-79
2021/03/20 00:25:20;;;;;;;14.68;9.50;;;;;;;3.84;86.42;102309.22;4972300;28;20031;-79
2021/03/20 00:27:47;;;;;;;14.23;9.65;;;;;;;3.81;86.66;102297.78;4987741;28;20034;-79
2021/03/20 00:30:13;;;;;;;16.60;10.00;;;;;;;3.79;86.62;102302.22;4971811;28;20716;-79
2021/03/20 00:32:38;;;;;;;16.50;9.38;;;;;;;3.76;86.85;102310.22;4974156;28;20034;-78
2021/03/20 00:35:07;;;;;;;16.00;10.10;;;;;;;3.73;86.78;102304.94;4972508;28;20045;-79
2021/03/20 00:37:33;;;;;;;16.05;9.73;;;;;;;3.73;86.82;102300.50;4985541;28;20076;-79
2021/03/20 00:39:58;;;;;;;16.85;10.25;;;;;;;3.66;86.84;102309.44;4971399;28;20038;-79
2021/03/20 00:42:24;;;;;;;20.35;10.32;;;;;;;3.61;87.44;102305.94;4963410;28;20062;-78
2021/03/20 00:44:49;;;;;;;14.90;10.40;;;;;;;3.58;87.58;102306.00;4985331;28;20049;-79
2021/03/20 00:47:15;;;;;;;16.30;9.73;;;;;;;3.58;87.73;102317.47;4966253;28;20388;-78
2021/03/20 00:49:40;;;;;;;15.18;9.52;;;;;;;3.56;87.85;102321.06;4969931;28;20139;-78
2021/03/20 00:52:06;;;;;;;18.20;10.45;;;;;;;3.54;88.36;102321.06;4992151;28;20038;-79
2021/03/20 00:54:31;;;;;;;20.02;10.30;;;;;;;3.50;88.64;102311.38;4974536;28;20093;-79
2021/03/20 00:56:57;;;;;;;16.15;10.45;;;;;;;3.48;88.91;102314.94;4976352;28;20042;-79
2021/03/20 00:59:22;;;;;;;18.38;9.93;;;;;;;3.47;89.13;102313.16;4991059;28;20040;-79
2021/03/20 01:01:48;;;;;;;19.88;11.18;;;;;;;3.46;89.08;102324.66;4992952;28;20050;-79
2021/03/20 01:04:13;;;;;;;17.10;10.60;;;;;;;3.45;89.24;102330.91;4975169;28;20033;-79
2021/03/20 01:06:38;;;;;;;18.83;11.45;;;;;;;3.44;89.58;102326.47;4957328;28;20650;-78
2021/03/20 01:09:06;;;;;;;18.70;11.25;;;;;;;3.42;89.43;102325.59;4987926;28;20708;-78
2021/03/20 01:11:31;;;;;;;18.58;11.43;;;;;;;3.42;89.57;102330.91;4975383;28;20365;-78
2021/03/20 01:13:57;;;;;;;21.08;11.60;;;;;;;3.42;89.71;102325.59;4956065;28;20117;-79
2021/03/20 01:16:24;;;;;;;21.17;11.75;;;;;;;3.41;89.84;102330.03;4976507;28;20065;-79
2021/03/20 01:18:50;;;;;;;20.00;11.57;;;;;;;3.40;90.04;102328.25;4975966;28;20471;-78
2021/03/20 01:21:16;;;;;;;17.05;10.95;;;;;;;3.36;90.32;102330.97;4978375;28;20054;-79
2021/03/20 01:23:42;;;;;;;16.23;10.48;;;;;;;3.32;90.54;102335.44;4974859;28;20042;-79
2021/03/20 01:26:08;;;;;;;18.25;10.80;;;;;;;3.30;90.71;102342.50;4972677;28;20093;-79
2021/03/20 01:28:36;;;;;;;17.67;11.05;;;;;;;3.30;90.81;102349.59;4975282;28;20030;-79
2021/03/20 01:31:02;;;;;;;17.95;11.07;;;;;;;3.28;91.00;102346.06;5004639;28;20503;-78
2021/03/20 01:33:28;;;;;;;19.08;11.18;;;;;;;3.28;91.32;102343.41;4992238;28;20064;-78
2021/03/20 01:35:53;;;;;;;18.85;11.60;;;;;;;3.25;91.61;102347.88;4973611;28;20042;-78
2021/03/20 01:38:19;;;;;;;17.88;11.18;;;;;;;3.25;91.41;102355.84;4975167;28;20434;-78
2021/03/20 01:40:56;;;;;;;18.08;11.40;;;;;;;3.24;91.62;102354.06;4974165;28;20034;-78
2021/03/20 01:43:25;;;;;;;27.63;11.98;;;;;;;3.24;91.85;102343.44;4974899;28;20030;-78
2021/03/20 01:45:51;;;;;;;24.33;12.77;;;;;;;3.24;91.81;102348.75;4990531;28;20061;-78
2021/03/20 01:48:24;;;;;;;34.38;17.45;;;;;;;3.23;92.04;102348.75;5008983;28;20077;-78
2021/03/20 01:50:49;;;;;;;30.02;15.13;;;;;;;3.22;92.15;102350.53;4995155;28;20062;-78
2021/03/20 01:53:38;;;;;;;30.95;15.18;;;;;;;3.20;92.33;102355.00;4991375;28;20088;-79
2021/03/20 01:56:09;;;;;;;25.92;13.23;;;;;;;3.20;92.30;102351.47;4975276;28;20396;-78
2021/03/20 01:58:37;;;;;;;21.20;12.88;;;;;;;3.18;92.38;102347.94;4992617;28;20113;-78
2021/03/20 02:01:02;;;;;;;18.85;12.13;;;;;;;3.17;92.65;102351.47;4992483;28;20042;-78
2021/03/20 02:03:29;;;;;;;20.50;12.07;;;;;;;3.18;92.47;102350.56;4990460;28;20037;-78
2021/03/20 02:05:55;;;;;;;20.20;12.00;;;;;;;3.17;92.71;102347.03;4972550;28;20399;-78
2021/03/20 02:08:21;;;;;;;21.95;12.30;;;;;;;3.18;92.72;102348.81;4988026;28;20529;-78
2021/03/20 02:10:47;;;;;;;21.85;12.60;;;;;;;3.18;92.90;102337.31;4985641;28;20034;-78
2021/03/20 02:13:21;;;;;;;20.52;11.75;;;;;;;3.17;92.82;102336.44;4982493;28;20034;-78
2021/03/20 02:15:51;;;;;;;21.35;11.77;;;;;;;3.14;92.96;102328.50;4986860;28;20042;-78
2021/03/20 02:18:38;;;;;;;21.17;12.50;;;;;;;3.14;92.93;102327.63;4970740;28;20039;-78
2021/03/20 02:21:11;;;;;;;22.23;11.68;;;;;;;3.11;92.99;102319.69;4983711;28;20034;-77
2021/03/20 02:24:08;;;;;;;20.52;11.00;;;;;;;3.09;93.16;102321.44;4965711;28;20152;-78
2021/03/20 02:26:55;;;;;;;19.40;11.25;;;;;;;3.05;93.11;102325.91;4982954;28;20084;-78
2021/03/20 02:30:15;;;;;;;22.52;11.98;;;;;;;3.02;93.08;102323.31;4968312;28;20030;-78
2021/03/20 02:32:50;;;;;;;23.50;11.73;;;;;;;2.99;93.18;102331.28;4921003;29;20128;-78
2021/03/20 02:35:38;;;;;;;18.20;11.07;;;;;;;2.96;93.01;102333.97;4906870;29;20039;-78
2021/03/20 02:38:20;;;;;;;20.85;11.60;;;;;;;2.97;92.81;102326.84;4940179;28;20062;-78
2021/03/20 02:41:27;;;;;;;19.00;10.73;;;;;;;2.86;92.95;102334.91;4985641;28;20042;-78
2021/03/20 02:44:15;;;;;;;17.77;9.50;;;;;;;2.82;93.08;102327.88;4905557;29;20053;-78
2021/03/20 02:47:05;;;;;;;21.00;10.40;;;;;;;2.90;92.84;102331.31;4911895;29;20039;-78
2021/03/20 02:49:49;;;;;;;17.77;10.30;;;;;;;2.75;92.99;102334.09;4937123;28;20104;-79
2021/03/20 02:52:40;;;;;;;16.75;10.05;;;;;;;2.66;93.27;102327.06;4984757;28;20112;-78
2021/03/20 02:55:17;;;;;;;21.08;10.63;;;;;;;2.60;92.78;102326.22;4968889;28;20042;-78
2021/03/20 02:57:54;;;;;;;15.40;9.20;;;;;;;2.52;93.36;102322.75;4986993;28;20049;-78
2021/03/20 03:00:42;;;;;;;16.17;9.27;;;;;;;2.50;93.59;102330.69;4982725;28;20106;-77
2021/03/20 03:03:09;;;;;;;10.88;6.68;;;;;;;2.50;92.48;102336.00;4987804;28;20503;-78
2021/03/20 03:05:43;;;;;;;9.85;6.25;;;;;;;2.41;91.79;102326.31;4956014;28;20034;-78
2021/03/20 03:08:12;;;;;;;10.70;6.60;;;;;;;2.34;91.87;102348.47;4969491;28;20030;-78
2021/03/20 03:10:46;;;;;;;10.30;5.32;;;;;;;2.31;90.62;102335.22;4971807;28;20034;-78
2021/03/20 03:13:19;;;;;;;12.95;5.85;;;;;;;2.28;90.71;102339.66;4973505;28;20084;-78
2021/03/20 03:15:50;;;;;;;9.07;5.38;;;;;;;2.26;90.35;102344.06;4986203;28;20034;-78
2021/03/20 03:18:25;;;;;;;12.18;4.75;;;;;;;2.22;90.06;102344.97;4971462;28;20113;-78
2021/03/20 03:20:55;;;;;;;7.70;4.68;;;;;;;2.17;89.79;102344.09;5002436;28;20068;-78
2021/03/20 03:23:24;;;;;;;11.13;4.70;;;;;;;2.25;86.64;102342.31;4967733;28;20031;-78
2021/03/20 03:26:00;;;;;;;9.57;4.20;;;;;;;2.13;87.04;102335.28;4985175;28;20022;-78
2021/03/20 03:28:28;;;;;;;7.88;4.47;;;;;;;2.10;87.19;102339.72;4981364;28;20084;-78
2021/03/20 03:30:56;;;;;;;6.85;4.15;;;;;;;2.07;87.39;102335.31;4986363;28;20042;-78
2021/03/20 03:33:24;;;;;;;8.38;4.32;;;;;;;2.04;87.68;102335.31;4992034;28;20034;-78
2021/03/20 03:35:56;;;;;;;7.00;4.10;;;;;;;2.03;87.62;102333.56;4986057;28;20035;-78
2021/03/20 03:38:27;;;;;;;8.20;3.70;;;;;;;2.00;87.72;102333.56;4970381;28;20034;-77
2021/03/20 03:41:16;;;;;;;5.70;3.53;;;;;;;1.98;87.75;102345.91;4971095;28;20438;-77
2021/03/20 03:43:44;;;;;;;7.20;3.97;;;;;;;1.96;87.86;102347.72;4965740;28;20034;-77
2021/03/20 03:46:10;;;;;;;9.43;4.30;;;;;;;1.93;87.93;102342.41;4980680;28;20037;-77
2021/03/20 03:48:35;;;;;;;8.40;3.92;;;;;;;1.90;87.92;102334.50;4970153;28;20061;-78
2021/03/20 03:51:14;;;;;;;10.02;4.18;;;;;;;1.99;87.53;102337.09;4968043;28;20038;-77
2021/03/20 03:53:40;;;;;;;10.45;4.90;;;;;;;1.87;87.88;102347.72;4969144;28;21770;-77
2021/03/20 03:56:42;;;;;;;9.95;4.65;;;;;;;1.83;88.24;102351.28;4965448;28;20046;-77
2021/03/20 03:59:20;;;;;;;11.15;4.40;;;;;;;1.83;88.30;102361.88;4980170;28;20113;-78
2021/03/20 04:01:51;;;;;;;13.63;5.18;;;;;;;1.79;87.98;102374.22;4972619;28;20567;-77
2021/03/20 04:04:29;;;;;;;9.27;4.90;;;;;;;1.71;88.61;102372.47;4964637;28;20042;-77
2021/03/20 04:07:12;;;;;;;9.00;4.50;;;;;;;1.66;89.09;102367.19;4981341;28;20034;-76
2021/03/20 04:09:56;;;;;;;9.95;4.53;;;;;;;1.61;89.18;102369.84;4973473;28;20041;-77
2021/03/20 04:12:34;;;;;;;11.98;4.20;;;;;;;1.58;89.24;102377.78;4970034;28;20073;-78
2021/03/20 04:15:02;;;;;;;7.47;3.75;;;;;;;1.56;89.21;102376.91;4990479;28;20488;-78
2021/03/20 04:17:59;;;;;;;7.90;3.85;;;;;;;1.53;89.22;102374.28;4974152;28;20030;-78
2021/03/20 04:20:31;;;;;;;9.32;4.07;;;;;;;1.50;89.21;102376.91;4972904;28;20479;-78
2021/03/20 04:23:08;;;;;;;9.30;4.13;;;;;;;1.45;88.91;102381.31;4989206;28;20085;-77
2021/03/20 04:25:34;;;;;;;7.68;3.72;;;;;;;1.42;88.81;102391.03;4972124;28;20030;-77
2021/03/20 04:28:07;;;;;;;8.85;4.72;;;;;;;1.40;88.66;102391.03;4970473;28;20026;-77
2021/03/20 04:30:36;;;;;;;7.90;3.70;;;;;;;1.36;88.51;102399.84;4957349;28;20057;-76
2021/03/20 04:33:39;;;;;;;8.15;3.83;;;;;;;1.32;88.42;102392.78;4987300;28;20026;-77
2021/03/20 04:36:16;;;;;;;12.67;4.60;;;;;;;1.30;88.42;102394.53;4954366;28;20053;-77
2021/03/20 04:38:44;;;;;;;9.18;4.07;;;;;;;1.28;88.46;102391.03;4989504;28;20030;-77
2021/03/20 04:41:11;;;;;;;13.30;5.03;;;;;;;1.27;88.46;102389.25;4970534;28;20476;-77
2021/03/20 04:43:39;;;;;;;21.45;8.52;;;;;;;1.23;88.44;102391.00;4989070;28;20034;-77
2021/03/20 04:46:15;;;;;;;34.63;14.90;;;;;;;1.20;88.21;102390.13;4987077;28;20813;-77
2021/03/20 04:48:44;;;;;;;106.68;42.92;;;;;;;1.18;87.85;102384.84;4985916;28;20065;-76
2021/03/20 04:51:29;;;;;;;36.33;15.10;;;;;;;1.18;85.55;102387.47;4971607;28;20049;-77
2021/03/20 04:54:11;;;;;;;32.58;10.95;;;;;;;1.12;85.54;102386.59;4988144;28;20034;-76
2021/03/20 04:56:58;;;;;;;16.95;7.25;;;;;;;1.09;85.32;102381.31;4973405;28;20042;-76
2021/03/20 04:59:42;;;;;;;11.73;4.53;;;;;;;1.04;85.80;102394.53;4959672;28;20056;-76
2021/03/20 05:02:39;;;;;;;35.85;12.77;;;;;;;1.03;85.54;102389.25;4990654;28;20092;-76
2021/03/20 05:05:15;;;;;;;16.42;5.60;;;;;;;0.96;85.35;102383.06;5003995;28;20062;-76
2021/03/20 05:07:41;;;;;;;8.95;4.10;;;;;;;0.89;85.45;102378.63;4972826;28;20038;-76
2021/03/20 05:10:15;;;;;;;12.25;4.57;;;;;;;0.87;85.56;102368.91;4967575;28;20030;-76
2021/03/20 05:12:41;;;;;;;29.08;13.20;;;;;;;0.84;85.91;102372.47;4981610;28;20522;-75
2021/03/20 05:15:30;;;;;;;24.50;11.10;;;;;;;0.81;85.74;102375.97;4991558;28;20038;-77
2021/03/20 05:17:55;;;;;;;39.70;18.73;;;;;;;0.79;85.79;102384.78;4969532;28;20121;-76
2021/03/20 05:20:22;;;;;;;38.50;16.45;;;;;;;0.78;85.86;102375.09;4972056;28;20117;-76
2021/03/20 05:22:48;;;;;;;23.13;11.70;;;;;;;0.73;86.26;102385.66;4972957;28;20037;-76
2021/03/20 05:25:17;;;;;;;17.85;8.85;;;;;;;0.69;86.75;102378.59;4990002;28;20390;-75
2021/03/20 05:27:43;;;;;;;14.82;6.65;;;;;;;0.63;87.14;102375.94;4988102;28;20041;-76
2021/03/20 05:30:10;;;;;;;13.00;6.15;;;;;;;0.59;87.42;102370.63;4979797;28;20042;-76
2021/03/20 05:32:36;;;;;;;15.27;10.27;;;;;;;0.53;88.17;102373.25;4973115;28;20041;-77
2021/03/20 05:35:07;;;;;;;12.32;7.30;;;;;;;0.48;88.55;102365.31;4970481;28;20043;-77
2021/03/20 05:37:37;;;;;;;9.25;5.00;;;;;;;0.45;88.90;102367.94;4968886;28;20098;-76
2021/03/20 05:40:14;;;;;;;11.60;4.70;;;;;;;0.40;89.24;102361.75;4973205;28;20050;-77
2021/03/20 05:42:58;;;;;;;8.25;3.90;;;;;;;0.36;89.40;102368.81;4973814;28;20045;-76
2021/03/20 05:45:42;;;;;;;10.88;4.03;;;;;;;0.32;89.42;102368.75;4986051;28;20125;-76
2021/03/20 05:48:19;;;;;;;8.40;4.30;;;;;;;0.29;89.49;102379.34;4989936;28;20703;-76
2021/03/20 05:51:10;;;;;;;10.13;4.20;;;;;;;0.25;89.58;102388.97;4970864;28;20046;-76
2021/03/20 05:54:03;;;;;;;8.25;3.78;;;;;;;0.23;89.75;102389.88;4968039;28;20118;-76
2021/03/20 05:56:41;;;;;;;11.20;4.43;;;;;;;0.22;89.81;102403.94;4969104;28;20103;-76
2021/03/20 05:59:27;;;;;;;9.65;4.35;;;;;;;0.20;89.90;102403.94;4985140;28;20030;-76
2021/03/20 06:02:19;;;;;;;12.02;4.35;;;;;;;0.19;89.91;102407.44;4990651;28;20057;-76
2021/03/20 06:04:56;;;;;;;9.25;4.45;;;;;;;0.12;90.59;102408.31;4963447;28;20667;-76
2021/03/20 06:07:30;;;;;;;7.78;4.15;;;;;;;0.12;91.14;102416.22;4956848;28;20052;-76
2021/03/20 06:09:56;;;;;;;13.27;4.63;;;;;;;0.11;91.50;102413.56;4988727;28;20430;-76
2021/03/20 06:12:44;;;;;;;7.13;3.90;;;;;;;0.10;91.73;102422.38;4970823;28;20038;-76
2021/03/20 06:15:31;;;;;;;7.15;3.75;;;;;;;0.09;91.96;102432.03;4982591;28;20056;-76
2021/03/20 06:18:09;;;;;;;8.18;4.43;;;;;;;0.09;92.05;102426.75;4969276;28;20384;-76
2021/03/20 06:21:02;;;;;;;7.05;4.07;;;;;;;0.08;92.16;102426.75;4970212;28;20531;-76
2021/03/20 06:23:55;;;;;;;11.18;4.20;;;;;;;0.09;92.05;102424.13;4995031;28;20060;-76
2021/03/20 06:26:34;;;;;;;7.22;3.63;;;;;;;0.09;92.16;102420.59;4985554;28;20031;-76
2021/03/20 06:29:28;;;;;;;8.68;3.85;;;;;;;0.11;92.09;102426.78;4971635;28;20772;-76
2021/03/20 06:31:55;;;;;;;;;;;;;;;0.12;92.19;102425.91;4991704;28;20042;-75
2021/03/20 06:34:24;;;;;;;7.88;4.15;;;;;;;0.12;92.38;102423.25;4963634;28;19914;-76
2021/03/20 06:36:54;;;;;;;10.20;3.95;;;;;;;0.14;92.54;102426.78;4984696;28;20041;-76
2021/03/20 06:39:36;;;;;;;8.93;4.20;;;;;;;0.17;92.45;102426.81;4989469;28;20038;-76
2021/03/20 06:42:11;;;;;;;10.13;4.30;;;;;;;0.24;92.55;102434.78;4987043;28;20038;-76
2021/03/20 06:44:38;;;;;;;9.30;4.75;;;;;;;0.40;92.39;102430.44;4969788;28;20037;-76
2021/03/20 06:47:16;;;;;;;6.32;4.07;;;;;;;0.71;92.00;102442.91;4987715;28;20036;-76
2021/03/20 06:50:06;;;;;;;9.32;4.38;;;;;;;1.15;90.97;102435.09;4967999;28;20038;-75
2021/03/20 06:52:35;;;;;;;8.27;3.50;;;;;;;1.83;88.83;102446.59;4987106;28;20414;-75
2021/03/20 06:55:08;;;;;;;9.38;3.58;;;;;;;2.56;85.94;102462.31;5002532;28;20493;-75
2021/03/20 06:57:33;;;;;;;8.10;3.72;;;;;;;3.27;81.60;102454.03;4954172;28;20145;-75
2021/03/20 07:00:15;;;;;;;14.32;4.18;;;;;;;3.98;76.98;102461.41;4985103;28;20133;-76
2021/03/20 07:03:03;;;;;;;20.77;5.00;;;;;;;4.54;72.46;102467.91;4970897;28;20384;-76
2021/03/20 07:05:44;;;;;;;8.88;3.17;;;;;;;4.88;68.02;102473.69;4985528;28;20034;-75
2021/03/20 07:08:33;;;;;;;8.35;3.15;;;;;;;5.34;63.70;102484.59;4968830;28;20117;-75
2021/03/20 07:10:59;;;;;;;7.93;3.30;;;;;;;5.65;64.82;102491.22;4983611;28;20070;-75
2021/03/20 07:13:29;;;;;;;7.43;3.30;;;;;;;6.24;62.15;102500.00;4970801;28;20161;-75
2021/03/20 07:16:14;;;;;;;9.68;3.65;;;;;;;6.65;58.56;102503.69;4990324;28;20117;-74
2021/03/20 07:18:41;;;;;;;9.25;3.20;;;;;;;6.06;59.44;102497.66;4981819;28;20545;-75
2021/03/20 07:21:33;;;;;;;7.07;3.42;;;;;;;5.16;61.07;102506.16;4954750;28;20034;-75
2021/03/20 07:24:03;;;;;;;6.57;3.13;;;;;;;4.70;64.68;102506.72;4979526;28;20041;-75
2021/03/20 07:26:31;;;;;;;8.93;3.33;;;;;;;4.34;66.05;102499.13;4978482;28;20049;-75
2021/03/20 07:28:59;;;;;;;9.63;3.45;;;;;;;4.10;68.26;102502.03;4969889;28;20506;-75
2021/03/20 07:31:25;;;;;;;9.00;3.50;;;;;;;4.10;68.93;102502.03;4968237;28;20476;-75
2021/03/20 07:33:53;;;;;;;13.13;4.20;;;;;;;4.13;68.65;102502.03;4996772;28;20034;-75
2021/03/20 07:36:24;;;;;;;9.70;4.20;;;;;;;4.19;68.03;102507.28;4970903;28;20045;-75
2021/03/20 07:39:05;;;;;;;11.18;4.15;;;;;;;4.72;68.39;102504.91;4984816;28;20039;-75
2021/03/20 07:41:45;;;;;;;12.95;3.95;;;;;;;5.99;63.27;102501.34;4987138;28;20049;-75
2021/03/20 07:44:10;;;;;;;7.65;3.85;;;;;;;6.77;58.41;102506.13;4981965;28;20158;-75
2021/03/20 07:46:36;;;;;;;10.65;4.50;;;;;;;7.25;55.38;102497.06;4983084;28;20572;-75
2021/03/20 07:49:06;;;;;;;12.18;4.05;;;;;;;7.53;54.20;102509.81;4972549;28;20786;-75
2021/03/20 07:51:52;;;;;;;12.48;3.95;;;;;;;8.03;51.77;102505.88;4975166;28;20034;-75
2021/03/20 07:54:39;;;;;;;10.82;5.15;;;;;;;8.42;50.29;102514.72;4970424;28;20054;-75
2021/03/20 07:57:12;;;;;;;10.35;5.10;;;;;;;8.63;49.88;102522.19;5006718;28;20210;-74
2021/03/20 07:59:49;;;;;;;13.43;4.93;;;;;;;8.83;48.42;102530.50;4989894;28;20081;-75
2021/03/20 08:02:35;;;;;;;16.77;6.22;;;;;;;9.21;47.86;102520.50;4989446;28;20756;-75
2021/03/20 08:05:20;;;;;;;13.93;5.18;;;;;;;9.05;47.28;102529.91;4989565;28;20054;-75
2021/03/20 08:07:48;;;;;;;20.77;5.85;;;;;;;8.60;48.49;102522.25;4973310;28;20125;-75
2021/03/20 08:10:30;;;;;;;15.68;5.70;;;;;;;8.61;47.78;102524.00;4995104;28;20043;-75
2021/03/20 08:13:03;;;;;;;14.70;6.00;;;;;;;8.66;48.94;102523.88;5005590;28;20064;-75
2021/03/20 08:15:34;;;;;;;;;;;;;;;8.69;47.64;102522.00;4990617;28;20061;-75
2021/03/20 08:18:13;;;;;;;15.73;6.72;;;;;;;8.57;46.38;102527.69;5007127;28;19925;-76
2021/03/20 08:20:39;;;;;;;17.40;7.20;;;;;;;8.55;47.71;102529.53;4974793;28;20030;-75
2021/03/20 08:23:17;;;;;;;15.75;7.10;;;;;;;8.76;47.55;102528.97;4972279;28;20501;-76
2021/03/20 08:25:48;;;;;;;19.80;7.47;;;;;;;8.45;48.15;102528.03;4971714;28;20038;-76
2021/03/20 08:28:45;;;;;;;16.73;6.88;;;;;;;8.64;47.10;102537.31;4967732;28;20085;-76
2021/03/20 08:31:47;;;;;;;14.88;6.22;;;;;;;8.93;46.64;102537.38;4982468;28;20034;-76
2021/03/20 08:34:47;;;;;;;13.18;6.13;;;;;;;9.32;45.73;102539.78;4984379;28;20058;-76
2021/03/20 08:37:48;;;;;;;12.20;5.00;;;;;;;8.97;45.12;102532.81;4991153;28;20093;-76
2021/03/20 08:40:39;;;;;;;15.60;5.15;;;;;;;9.13;44.79;102538.63;4897965;29;20044;-76
2021/03/20 08:43:14;;;;;;;9.43;4.20;;;;;;;9.56;44.83;102539.06;4964092;28;20085;-76
2021/03/20 08:46:05;;;;;;;7.82;3.85;;;;;;;10.02;38.99;102548.31;4990288;28;20049;-77
2021/03/20 08:48:52;;;;;;;8.20;3.80;;;;;;;10.01;41.32;102546.56;4985036;28;20126;-77
2021/03/20 08:51:41;;;;;;;8.68;3.50;;;;;;;10.20;40.57;102542.38;4977693;28;20450;-77
2021/03/20 08:54:25;;;;;;;8.80;2.70;;;;;;;10.28;40.83;102543.00;4966755;28;20038;-77
2021/03/20 08:57:09;;;;;;;7.80;3.63;;;;;;;10.49;40.35;102544.91;4987813;28;20042;-77
2021/03/20 08:59:44;;;;;;;10.52;3.60;;;;;;;10.80;39.79;102541.16;4972263;28;20065;-76
2021/03/20 09:02:25;;;;;;;5.30;2.80;;;;;;;10.81;38.47;102551.84;4990579;28;20034;-77
2021/03/20 09:04:58;;;;;;;10.05;3.10;;;;;;;10.58;36.58;102549.09;4971957;28;20462;-78
2021/03/20 09:07:30;;;;;;;6.78;2.83;;;;;;;10.64;37.65;102548.00;4990417;28;20506;-77
2021/03/20 09:09:59;;;;;;;7.82;3.08;;;;;;;10.49;37.32;102552.13;4986813;28;20066;-77
2021/03/20 09:12:37;;;;;;;10.00;2.95;;;;;;;10.24;37.84;102560.13;4989972;28;20675;-77
2021/03/20 09:15:06;;;;;;;6.47;2.78;;;;;;;10.02;37.61;102559.03;4992016;28;20052;-77
2021/03/20 09:17:34;;;;;;;10.10;2.58;;;;;;;10.01;38.52;102557.28;4974835;28;20042;-76
2021/03/20 09:20:22;;;;;;;7.20;2.80;;;;;;;10.23;38.02;102558.38;4974179;28;20161;-76
2021/03/20 09:22:50;;;;;;;7.25;2.80;;;;;;;10.16;36.86;102554.09;4989951;28;20045;-76
2021/03/20 09:25:36;;;;;;;6.40;2.83;;;;;;;9.73;37.31;102546.59;4967663;28;21758;-77
2021/03/20 09:28:10;;;;;;;15.40;3.15;;;;;;;9.93;36.49;102556.69;4969339;28;20042;-77
2021/03/20 09:30:43;;;;;;;5.55;3.08;;;;;;;9.73;37.46;102549.25;4971765;28;20480;-77
2021/03/20 09:33:35;;;;;;;10.13;2.72;;;;;;;9.79;38.74;102550.88;4975660;28;20530;-77
2021/03/20 09:36:19;;;;;;;10.85;2.47;;;;;;;10.07;36.92;102560.66;4973125;28;20049;-77
2021/03/20 09:38:48;;;;;;;8.73;2.20;;;;;;;9.69;34.68;102551.16;4972487;28;20045;-77
2021/03/20 09:41:13;;;;;;;5.55;2.55;;;;;;;9.38;35.91;102554.84;4967199;28;20038;-77
2021/03/20 09:43:44;;;;;;;10.43;2.38;;;;;;;9.44;36.66;102550.19;4996666;28;20049;-77
2021/03/20 09:46:29;;;;;;;7.43;2.97;;;;;;;9.39;36.37;102545.84;4981271;28;20129;-77
2021/03/20 09:48:56;;;;;;;6.35;2.45;;;;;;;9.16;37.46;102546.53;5004031;28;20042;-76
2021/03/20 09:51:49;;;;;;;9.15;2.58;;;;;;;9.07;38.22;102538.78;4972992;28;20045;-77
2021/03/20 09:54:25;;;;;;;4.78;2.33;;;;;;;8.97;37.85;102538.16;4969186;28;20041;-76
2021/03/20 09:56:55;;;;;;;6.55;2.53;;;;;;;8.84;36.88;102537.63;4986251;28;20042;-76
2021/03/20 09:59:44;;;;;;;4.95;2.20;;;;;;;8.71;36.78;102533.53;4971022;28;20033;-77
2021/03/20 10:02:10;;;;;;;6.35;2.08;;;;;;;8.83;36.88;102535.88;4950644;28;20133;-77
2021/03/20 10:05:03;;;;;;;4.68;2.28;;;;;;;8.84;36.52;102521.56;4972229;28;20535;-77
2021/03/20 10:07:33;;;;;;;6.78;2.38;;;;;;;9.08;37.20;102519.09;4961372;28;20427;-77
2021/03/20 10:10:01;;;;;;;6.80;2.40;;;;;;;9.21;37.04;102533.88;4971381;28;20038;-76
2021/03/20 10:12:47;;;;;;;4.43;2.10;;;;;;;9.11;35.24;102522.56;4978075;28;20096;-77
2021/03/20 10:15:21;;;;;;;7.70;2.20;;;;;;;9.10;35.37;102522.63;4964874;28;20583;-76
2021/03/20 10:18:05;;;;;;;8.82;2.58;;;;;;;8.81;35.31;102527.03;4980797;28;20054;-76
2021/03/20 10:20:56;;;;;;;5.00;2.17;;;;;;;8.62;36.21;102524.91;4988819;28;20438;-77
2021/03/20 10:23:46;;;;;;;7.88;2.28;;;;;;;8.60;33.89;102524.94;4961280;28;20450;-77
2021/03/20 10:26:21;;;;;;;5.75;2.22;;;;;;;8.74;35.42;102519.19;4998630;28;20386;-77
2021/03/20 10:29:16;;;;;;;4.38;2.03;;;;;;;8.83;34.38;102517.13;4973114;28;20059;-77
2021/03/20 10:31:44;;;;;;;5.78;2.58;;;;;;;8.88;31.50;102523.25;4953253;28;20073;-77
2021/03/20 10:34:13;;;;;;;4.75;2.03;;;;;;;8.79;32.17;102509.22;4969697;28;20034;-77
2021/03/20 10:36:45;;;;;;;6.05;2.28;;;;;;;8.76;32.02;102512.91;4984966;28;20057;-77
2021/03/20 10:39:31;;;;;;;5.97;1.92;;;;;;;8.92;32.51;102502.59;4966742;28;20057;-76
2021/03/20 10:42:15;;;;;;;4.20;2.17;;;;;;;8.72;31.73;102500.50;4970434;28;20038;-76
2021/03/20 10:44:46;;;;;;;11.43;2.08;;;;;;;8.80;34.19;102498.47;4987337;28;20046;-76
2021/03/20 10:47:11;;;;;;;4.13;1.65;;;;;;;8.72;31.22;102495.13;4970524;28;20386;-77
2021/03/20 10:49:41;;;;;;;4.32;1.95;;;;;;;8.81;30.23;102499.38;4970199;28;20117;-77
2021/03/20 10:52:17;;;;;;;8.20;2.55;;;;;;;8.84;27.69;102494.78;4964125;28;20804;-77
2021/03/20 10:54:47;;;;;;;3.47;1.80;;;;;;;8.75;29.76;102495.06;4974617;28;20594;-76
2021/03/20 10:57:19;;;;;;;5.22;1.88;;;;;;;8.98;29.44;102496.19;4986980;28;20054;-77
2021/03/20 10:59:50;;;;;;;4.00;1.50;;;;;;;9.11;28.21;102502.94;4982182;28;20077;-76
2021/03/20 11:02:23;;;;;;;3.15;1.60;;;;;;;8.88;27.39;102495.59;4984069;28;20069;-76
2021/03/20 11:04:50;;;;;;;;;;;;;;;9.02;27.91;102498.72;4968411;28;20045;-77
2021/03/20 11:07:18;;;;;;;3.38;1.80;;;;;;;8.97;28.51;102494.44;4987745;28;19917;-76
2021/03/20 11:09:44;;;;;;;3.00;1.77;;;;;;;9.02;32.12;102487.13;4966279;28;20069;-76
2021/03/20 11:12:16;;;;;;;6.85;1.70;;;;;;;8.87;31.39;102488.47;4970761;28;20489;-77
2021/03/20 11:14:50;;;;;;;2.58;1.38;;;;;;;8.67;32.74;102480.13;4974481;28;20482;-77
2021/03/20 11:17:22;;;;;;;7.20;2.15;;;;;;;9.02;31.04;102484.44;4969688;28;20042;-77
2021/03/20 11:19:58;;;;;;;7.82;2.70;;;;;;;9.04;31.53;102490.66;4988273;28;20483;-76
2021/03/20 11:22:34;;;;;;;6.72;1.60;;;;;;;9.19;30.95;102487.53;4981687;28;20533;-76
2021/03/20 11:25:07;;;;;;;8.50;1.65;;;;;;;9.09;31.72;102480.66;5006048;28;20520;-76
2021/03/20 11:27:38;;;;;;;3.67;1.45;;;;;;;9.22;31.69;102479.38;4983245;28;20105;-76
2021/03/20 11:30:12;;;;;;;3.95;1.58;;;;;;;8.96;30.10;102487.31;4981184;28;20038;-76
2021/03/20 11:32:41;;;;;;;5.18;1.52;;;;;;;9.06;31.00;102472.75;4985276;28;20133;-76
2021/03/20 11:35:15;;;;;;;2.47;1.65;;;;;;;9.05;31.04;102477.22;4993187;28;20030;-76
2021/03/20 11:37:40;;;;;;;5.10;1.60;;;;;;;9.02;30.52;102482.66;4969097;28;20038;-76
2021/03/20 11:40:08;;;;;;;2.03;1.35;;;;;;;8.81;29.59;102478.81;4981754;28;20030;-76
2021/03/20 11:42:38;;;;;;;3.92;1.40;;;;;;;8.78;29.24;102475.34;4954761;28;20480;-76
2021/03/20 11:45:21;;;;;;;3.40;1.50;;;;;;;9.02;29.73;102476.41;4983072;28;20030;-76
2021/03/20 11:47:52;;;;;;;;;;;;;;;8.75;29.07;102473.66;4969972;28;20524;-76
2021/03/20 11:50:30;;;;;;;2.58;1.02;;;;;;;8.75;28.48;102476.31;4998031;28;20367;-76
2021/03/20 11:53:00;;;;;;;2.13;1.20;;;;;;;8.75;26.90;102478.13;4968270;28;20406;-76
2021/03/20 11:55:34;;;;;;;1.38;1.02;;;;;;;8.85;27.71;102469.78;4968946;28;20026;-76
2021/03/20 11:58:09;;;;;;;2.05;1.02;;;;;;;8.93;28.73;102465.06;4967204;28;20046;-76
2021/03/20 12:00:36;;;;;;;4.78;1.38;;;;;;;8.96;26.56;102461.41;4983425;28;20022;-76
2021/03/20 12:03:09;;;;;;;2.65;1.13;;;;;;;9.05;25.24;102454.91;4971160;28;21435;-77